createdAt,value
2018-09-03T00:01:05.163Z,46.45
2018-09-03T00:03:36.301Z,47.15
2018-09-03T00:06:06.570Z,46.23
2018-09-03T00:08:38.607Z,46.49
2018-09-03T00:11:12.306Z,46.29
2018-09-03T00:13:45.149Z,45.89
2018-09-03T00:16:16.787Z,46.50
2018-09-03T00:21:21.003Z,46.69
2018-09-03T00:23:52.069Z,46.71
2018-09-03T00:26:24.219Z,46.00
2018-09-03T00:28:57.173Z,46.17
2018-09-03T00:31:33.162Z,46.87
2018-09-03T00:34:08.655Z,46.95
2018-09-03T00:36:44.830Z,46.47
2018-09-03T00:39:20.513Z,46.73
2018-09-03T00:41:56.657Z,47.11
2018-09-03T00:44:32.860Z,46.79
2018-09-03T00:47:08.747Z,47.26
2018-09-03T00:49:41.419Z,46.77
2018-09-03T00:52:12.547Z,47.02
2018-09-03T00:54:43.644Z,47.52
2018-09-03T00:57:14.631Z,47.50
2018-09-03T00:59:44.894Z,47.77
2018-09-03T01:02:16.003Z,47.98
2018-09-03T01:04:46.101Z,47.23
2018-09-03T01:07:16.258Z,48.09
2018-09-03T01:09:47.482Z,48.09
2018-09-03T01:12:19.150Z,47.83
2018-09-03T01:14:50.115Z,48.10
2018-09-03T01:17:22.280Z,48.80
2018-09-03T01:19:53.891Z,48.23
2018-09-03T01:22:25.128Z,48.76
2018-09-03T01:24:56.905Z,48.66
2018-09-03T01:27:28.289Z,48.06
2018-09-03T01:30:01.777Z,48.18
2018-09-03T01:32:32.134Z,48.94
2018-09-03T01:35:03.155Z,48.70
2018-09-03T01:37:33.165Z,48.23
2018-09-03T01:40:04.664Z,48.42
2018-09-03T01:42:35.670Z,48.08
2018-09-03T01:45:08.258Z,47.99
2018-09-03T01:47:39.748Z,48.32
2018-09-03T01:50:09.929Z,47.99
2018-09-03T01:52:40.257Z,48.40
2018-09-03T01:55:10.430Z,48.87
2018-09-03T01:57:41.121Z,48.21
2018-09-03T02:00:13.800Z,48.69
2018-09-03T02:02:45.667Z,49.18
2018-09-03T02:05:15.935Z,49.02
2018-09-03T02:07:47.218Z,47.72
2018-09-03T02:10:19.715Z,47.92
2018-09-03T02:12:50.906Z,47.40
2018-09-03T02:15:25.770Z,47.11
2018-09-03T02:17:55.906Z,47.55
2018-09-03T02:20:26.818Z,47.59
2018-09-03T02:23:04.036Z,47.62
2018-09-03T02:25:38.395Z,47.52
2018-09-03T02:28:11.676Z,47.74
2018-09-03T02:30:42.456Z,47.71
2018-09-03T02:33:16.055Z,47.50
2018-09-03T02:35:47.270Z,47.68
2018-09-03T02:38:18.158Z,47.85
2018-09-03T02:40:47.756Z,47.73
2018-09-03T02:43:18.276Z,47.26
2018-09-03T02:45:48.181Z,47.99
2018-09-03T02:48:19.805Z,47.43
2018-09-03T02:50:49.953Z,47.41
2018-09-03T02:53:21.950Z,47.51
2018-09-03T02:55:52.090Z,47.31
2018-09-03T02:58:22.317Z,47.51
2018-09-03T03:00:52.469Z,47.89
2018-09-03T03:03:21.709Z,47.38
2018-09-03T03:05:50.892Z,47.19
2018-09-03T03:08:21.076Z,47.19
2018-09-03T03:10:52.449Z,47.46
2018-09-03T03:13:24.654Z,47.29
2018-09-03T03:15:56.382Z,47.44
2018-09-03T03:18:27.843Z,47.16
2018-09-03T03:20:59.874Z,46.69
2018-09-03T03:23:31.792Z,47.25
2018-09-03T03:26:04.152Z,47.15
2018-09-03T03:28:35.319Z,47.02
2018-09-03T03:31:05.834Z,47.05
2018-09-03T03:33:37.394Z,46.78
2018-09-03T03:36:07.875Z,47.00
2018-09-03T03:38:37.241Z,46.96
2018-09-03T03:41:08.280Z,46.64
2018-09-03T03:43:37.538Z,45.92
2018-09-03T03:46:08.361Z,45.94
2018-09-03T03:48:38.512Z,45.79
2018-09-03T03:51:08.810Z,46.20
2018-09-03T03:53:38.944Z,46.04
2018-09-03T03:56:09.740Z,45.91
2018-09-03T03:58:40.066Z,45.01
2018-09-03T04:01:10.265Z,45.30
2018-09-03T04:03:40.401Z,44.98
2018-09-03T04:06:13.383Z,45.16
2018-09-03T04:08:43.507Z,45.40
2018-09-03T04:11:13.213Z,45.84
2018-09-03T04:13:43.726Z,45.33
2018-09-03T04:16:13.031Z,46.01
2018-09-03T04:18:42.307Z,46.37
2018-09-03T04:21:12.435Z,45.88
2018-09-03T04:23:43.410Z,46.31
2018-09-03T04:26:13.606Z,46.24
2018-09-03T04:28:42.865Z,45.67
2018-09-03T04:31:13.285Z,45.77
2018-09-03T04:33:43.431Z,45.87
2018-09-03T04:36:13.714Z,45.15
2018-09-03T04:38:43.789Z,45.01
2018-09-03T04:41:14.100Z,44.96
2018-09-03T04:43:44.253Z,44.96
2018-09-03T04:46:15.455Z,45.16
2018-09-03T04:48:44.657Z,44.43
2018-09-03T04:51:17.126Z,44.38
2018-09-03T04:53:46.489Z,44.75
2018-09-03T04:56:18.493Z,45.22
2018-09-03T04:58:49.405Z,45.75
2018-09-03T05:01:19.682Z,45.14
2018-09-03T05:03:52.155Z,45.43
2018-09-03T05:06:24.290Z,45.85
2018-09-03T05:11:33.465Z,45.17
2018-09-03T05:14:03.668Z,44.93
2018-09-03T05:16:33.661Z,45.55
2018-09-03T05:19:05.765Z,45.84
2018-09-03T05:21:37.613Z,45.13
2018-09-03T05:24:07.927Z,45.07
2018-09-03T05:26:37.349Z,45.35
2018-09-03T05:29:07.568Z,45.05
2018-09-03T05:31:37.644Z,45.10
2018-09-03T05:34:08.747Z,44.91
2018-09-03T05:36:38.098Z,45.25
2018-09-03T05:39:12.003Z,45.23
2018-09-03T05:41:41.657Z,45.36
2018-09-03T05:44:11.273Z,45.40
2018-09-03T05:46:41.185Z,44.65
2018-09-03T05:49:10.482Z,45.17
2018-09-03T05:51:39.729Z,44.44
2018-09-03T05:54:10.242Z,44.71
2018-09-03T05:56:39.448Z,44.79
2018-09-03T05:59:08.855Z,44.31
2018-09-03T06:01:40.954Z,44.90
2018-09-03T06:04:10.273Z,45.01
2018-09-03T06:06:40.454Z,44.56
2018-09-03T06:09:12.597Z,44.92
2018-09-03T06:11:43.985Z,45.13
2018-09-03T06:14:15.230Z,44.70
2018-09-03T06:16:45.790Z,44.24
2018-09-03T06:19:16.320Z,45.23
2018-09-03T06:21:45.674Z,45.20
2018-09-03T06:24:16.704Z,45.40
2018-09-03T06:26:46.284Z,44.79
2018-09-03T06:29:18.743Z,44.63
2018-09-03T06:31:49.854Z,45.12
2018-09-03T06:34:20.073Z,45.22
2018-09-03T06:36:49.315Z,44.95
2018-09-03T06:39:22.197Z,44.81
2018-09-03T06:41:51.464Z,44.45
2018-09-03T06:44:22.062Z,43.94
2018-09-03T06:46:51.370Z,44.39
2018-09-03T06:49:22.390Z,44.43
2018-09-03T06:51:52.521Z,44.80
2018-09-03T06:54:22.803Z,44.36
2018-09-03T06:56:52.121Z,43.98
2018-09-03T06:59:21.457Z,44.46
2018-09-03T07:01:52.363Z,44.52
2018-09-03T07:04:22.479Z,44.31
2018-09-03T07:06:52.825Z,43.39
2018-09-03T07:09:22.877Z,43.13
2018-09-03T07:11:53.840Z,43.06
2018-09-03T07:14:24.410Z,43.18
2018-09-03T07:16:54.415Z,43.12
2018-09-03T07:19:24.298Z,42.65
2018-09-03T07:21:54.389Z,42.56
2018-09-03T07:24:23.687Z,42.97
2018-09-03T07:26:54.883Z,42.73
2018-09-03T07:29:24.846Z,42.51
2018-09-03T07:31:55.354Z,42.62
2018-09-03T07:34:25.603Z,42.33
2018-09-03T07:36:55.580Z,41.37
2018-09-03T07:39:24.828Z,41.60
2018-09-03T07:41:58.540Z,41.68
2018-09-03T07:44:29.223Z,41.95
2018-09-03T07:47:01.186Z,42.12
2018-09-03T07:49:32.194Z,41.91
2018-09-03T07:52:01.523Z,41.22
2018-09-03T07:54:32.069Z,41.73
2018-09-03T07:57:01.480Z,41.52
2018-09-03T07:59:30.729Z,40.69
2018-09-03T08:02:00.215Z,40.67
2018-09-03T08:04:30.468Z,40.47
2018-09-03T08:07:00.796Z,40.66
2018-09-03T08:09:30.108Z,39.42
2018-09-03T08:11:59.378Z,39.91
2018-09-03T08:14:30.261Z,39.09
2018-09-03T08:16:59.644Z,39.84
2018-09-03T08:19:29.099Z,39.09
2018-09-03T08:21:58.457Z,39.59
2018-09-03T08:24:28.358Z,39.13
2018-09-03T08:26:58.477Z,38.67
2018-09-03T08:29:29.325Z,38.62
2018-09-03T08:32:01.109Z,39.10
2018-09-03T08:34:32.220Z,37.97
2018-09-03T08:37:02.006Z,37.85
2018-09-03T08:39:31.545Z,37.64
2018-09-03T08:42:00.812Z,37.63
2018-09-03T08:44:30.113Z,36.56
2018-09-03T08:47:02.666Z,36.74
2018-09-03T08:49:32.529Z,36.85
2018-09-03T08:52:02.402Z,36.48
2018-09-03T08:54:32.460Z,36.92
2018-09-03T08:57:01.794Z,37.19
2018-09-03T08:59:32.130Z,37.32
2018-09-03T09:02:01.454Z,37.80
2018-09-03T09:04:31.458Z,37.05
2018-09-03T09:07:01.703Z,37.23
2018-09-03T09:09:31.876Z,37.28
2018-09-03T09:12:01.198Z,37.06
2018-09-03T09:14:30.560Z,36.43
2018-09-03T09:16:59.823Z,36.57
2018-09-03T09:19:29.181Z,37.14
2018-09-03T09:21:59.761Z,36.09
2018-09-03T09:24:30.499Z,36.11
2018-09-03T09:27:00.835Z,35.44
2018-09-03T09:29:30.621Z,34.40
2018-09-03T09:31:59.991Z,33.90
2018-09-03T09:34:29.859Z,33.84
2018-09-03T09:36:59.959Z,32.96
2018-09-03T09:39:33.080Z,32.48
2018-09-03T09:42:05.823Z,32.41
2018-09-03T09:44:36.495Z,32.10
2018-09-03T09:47:05.946Z,32.28
2018-09-03T09:49:35.619Z,32.78
2018-09-03T09:52:04.945Z,32.43
2018-09-03T09:54:34.879Z,32.45
2018-09-03T09:57:04.228Z,32.97
2018-09-03T09:59:33.643Z,33.08
2018-09-03T10:02:03.202Z,33.72
2018-09-03T10:04:32.492Z,34.20
2018-09-03T10:07:01.812Z,33.62
2018-09-03T10:09:31.702Z,34.60
2018-09-03T10:12:01.885Z,33.94
2018-09-03T10:14:31.193Z,33.69
2018-09-03T10:17:01.233Z,33.63
2018-09-03T10:19:30.619Z,33.00
2018-09-03T10:22:00.304Z,33.19
2018-09-03T10:24:31.202Z,33.00
2018-09-03T10:27:05.477Z,33.40
2018-09-03T10:29:36.516Z,33.15
2018-09-03T10:32:17.267Z,33.44
2018-09-03T10:34:47.501Z,33.37
2018-09-03T10:37:16.914Z,32.49
2018-09-03T10:39:51.067Z,33.64
2018-09-03T10:42:26.730Z,33.94
2018-09-03T10:44:56.057Z,34.47
2018-09-03T10:47:28.527Z,33.57
2018-09-03T10:49:57.800Z,34.03
2018-09-03T10:52:27.140Z,33.70
2018-09-03T10:54:57.388Z,33.97
2018-09-03T10:57:27.345Z,33.58
2018-09-03T10:59:57.236Z,33.61
2018-09-03T11:02:28.240Z,33.23
2018-09-03T11:04:59.976Z,32.88
2018-09-03T11:07:29.314Z,32.46
2018-09-03T11:09:59.573Z,32.79
2018-09-03T11:12:29.289Z,33.01
2018-09-03T11:14:58.709Z,32.37
2018-09-03T11:17:29.711Z,32.66
2018-09-03T11:20:01.978Z,33.20
2018-09-03T11:22:34.078Z,33.36
2018-09-03T11:25:03.497Z,33.13
2018-09-03T11:27:36.849Z,33.75
2018-09-03T11:30:07.889Z,33.42
2018-09-03T11:32:41.248Z,33.23
2018-09-03T11:35:11.609Z,33.97
2018-09-03T11:37:43.297Z,34.41
2018-09-03T11:40:14.401Z,33.84
2018-09-03T11:42:44.734Z,34.36
2018-09-03T11:45:17.150Z,34.20
2018-09-03T11:47:47.814Z,34.46
2018-09-03T11:50:17.908Z,33.88
2018-09-03T11:52:50.003Z,34.06
2018-09-03T11:55:19.877Z,34.46
2018-09-03T11:57:51.667Z,34.36
2018-09-03T12:00:26.389Z,35.17
2018-09-03T12:02:59.278Z,35.45
2018-09-03T12:05:30.310Z,35.71
2018-09-03T12:08:04.330Z,35.51
2018-09-03T12:10:35.815Z,35.72
2018-09-03T12:13:05.798Z,35.91
2018-09-03T12:15:40.131Z,35.34
2018-09-03T12:18:11.606Z,35.38
2018-09-03T12:20:41.738Z,35.50
2018-09-03T12:23:11.215Z,35.14
2018-09-03T12:25:40.561Z,35.36
2018-09-03T12:28:09.893Z,36.19
2018-09-03T12:30:40.023Z,36.46
2018-09-03T12:33:09.342Z,36.30
2018-09-03T12:35:38.642Z,36.72
2018-09-03T12:38:07.962Z,36.83
2018-09-03T12:40:44.184Z,36.96
2018-09-03T12:43:16.910Z,36.53
2018-09-03T12:45:51.394Z,36.09
2018-09-03T12:48:21.391Z,35.81
2018-09-03T12:50:54.667Z,36.75
2018-09-03T12:53:26.258Z,36.14
2018-09-03T12:55:57.951Z,37.21
2018-09-03T12:58:29.327Z,36.83
2018-09-03T13:00:59.037Z,36.86
2018-09-03T13:03:28.577Z,36.87
2018-09-03T13:06:04.298Z,36.27
2018-09-03T13:08:34.556Z,36.34
2018-09-03T13:11:05.610Z,37.02
2018-09-03T13:13:36.785Z,37.48
2018-09-03T13:16:06.099Z,36.90
2018-09-03T13:18:36.790Z,37.38
2018-09-03T13:21:12.200Z,37.40
2018-09-03T13:23:41.649Z,37.65
2018-09-03T13:26:12.324Z,36.65
2018-09-03T13:28:42.440Z,36.77
2018-09-03T13:31:13.124Z,36.12
2018-09-03T13:33:46.467Z,36.22
2018-09-03T13:36:18.861Z,36.00
2018-09-03T13:38:48.197Z,36.39
2018-09-03T13:41:18.362Z,36.68
2018-09-03T13:43:49.702Z,36.66
2018-09-03T13:46:19.971Z,37.01
2018-09-03T13:48:49.309Z,36.24
2018-09-03T13:51:18.568Z,36.35
2018-09-03T13:53:48.365Z,35.94
2018-09-03T13:56:17.799Z,36.16
2018-09-03T13:58:48.573Z,36.06
2018-09-03T14:01:19.686Z,35.86
2018-09-03T14:03:50.503Z,36.04
2018-09-03T14:06:22.558Z,36.19
2018-09-03T14:08:52.713Z,35.93
2018-09-03T14:11:23.026Z,35.69
2018-09-03T14:13:53.236Z,35.56
2018-09-03T14:16:23.446Z,35.07
2018-09-03T14:18:53.709Z,34.88
2018-09-03T14:21:24.457Z,35.00
2018-09-03T14:23:55.217Z,35.71
2018-09-03T14:26:25.211Z,35.80
2018-09-03T14:28:55.610Z,36.06
2018-09-03T14:31:25.986Z,35.40
2018-09-03T14:33:55.409Z,35.52
2018-09-03T14:36:27.798Z,35.46
2018-09-03T14:38:58.170Z,34.24
2018-09-03T14:41:28.421Z,34.90
2018-09-03T14:43:59.366Z,33.80
2018-09-03T14:46:29.617Z,34.62
2018-09-03T14:49:01.072Z,33.81
2018-09-03T14:51:32.461Z,34.02
2018-09-03T14:54:03.814Z,33.62
2018-09-03T14:56:36.726Z,34.25
2018-09-03T14:59:07.446Z,33.80
2018-09-03T15:01:38.070Z,33.87
2018-09-03T15:04:08.132Z,33.25
2018-09-03T15:06:40.688Z,33.23
2018-09-03T15:09:15.917Z,34.20
2018-09-03T15:11:47.639Z,33.71
2018-09-03T15:14:18.522Z,33.17
2018-09-03T15:16:49.757Z,33.22
2018-09-03T15:19:21.452Z,33.18
2018-09-03T15:21:54.605Z,34.47
2018-09-03T15:24:26.626Z,34.22
2018-09-03T15:26:58.122Z,33.80
2018-09-03T15:29:28.132Z,34.02
2018-09-03T15:31:59.730Z,34.29
2018-09-03T15:34:29.043Z,34.88
2018-09-03T15:36:59.979Z,34.26
2018-09-03T15:39:32.668Z,34.75
2018-09-03T15:42:02.117Z,35.13
2018-09-03T15:44:31.438Z,34.76
2018-09-03T15:47:01.818Z,35.91
2018-09-03T15:49:32.782Z,35.08
2018-09-03T15:52:08.068Z,35.91
2018-09-03T15:54:37.891Z,36.70
2018-09-03T15:57:07.318Z,36.00
2018-09-03T15:59:36.627Z,36.73
2018-09-03T16:02:07.575Z,36.37
2018-09-03T16:04:38.958Z,36.83
2018-09-03T16:07:09.189Z,36.79
2018-09-03T16:09:39.594Z,36.78
2018-09-03T16:12:10.705Z,37.63
2018-09-03T16:14:40.130Z,37.37
2018-09-03T16:17:09.411Z,37.66
2018-09-03T16:19:40.242Z,37.86
2018-09-03T16:22:11.530Z,38.10
2018-09-03T16:24:40.914Z,37.13
2018-09-03T16:27:10.334Z,37.53
2018-09-03T16:29:40.347Z,37.17
2018-09-03T16:32:09.718Z,37.28
2018-09-03T16:34:44.080Z,37.53
2018-09-03T16:37:16.754Z,37.81
2018-09-03T16:39:46.184Z,37.63
2018-09-03T16:42:16.292Z,38.01
2018-09-03T16:44:48.463Z,37.26
2018-09-03T16:47:19.528Z,37.30
2018-09-03T16:52:19.157Z,38.22
2018-09-03T16:54:49.522Z,37.96
2018-09-03T16:57:21.695Z,37.88
2018-09-03T16:59:52.995Z,38.60
2018-09-03T17:02:23.714Z,38.81
2018-09-03T17:04:54.045Z,39.15
2018-09-03T17:07:24.664Z,38.96
2018-09-03T17:09:54.761Z,39.91
2018-09-03T17:12:26.770Z,39.44
2018-09-03T17:14:56.729Z,39.86
2018-09-03T17:17:27.642Z,40.50
2018-09-03T17:19:58.544Z,41.07
2018-09-03T17:22:30.321Z,41.50
2018-09-03T17:25:01.077Z,40.65
2018-09-03T17:27:31.212Z,41.32
2018-09-03T17:30:00.605Z,40.48
2018-09-03T17:32:30.738Z,41.39
2018-09-03T17:35:01.097Z,41.15
2018-09-03T17:37:30.467Z,41.62
2018-09-03T17:40:00.698Z,41.61
2018-09-03T17:42:31.782Z,41.72
2018-09-03T17:45:02.895Z,42.40
2018-09-03T17:47:33.335Z,41.96
2018-09-03T17:50:02.665Z,42.44
2018-09-03T17:52:31.967Z,41.97
2018-09-03T17:55:01.752Z,42.01
2018-09-03T17:57:32.824Z,41.94
2018-09-03T18:00:03.210Z,42.81
2018-09-03T18:02:33.053Z,42.95
2018-09-03T18:05:03.284Z,42.47
2018-09-03T18:07:34.789Z,42.72
2018-09-03T18:10:05.856Z,42.54
2018-09-03T18:12:35.163Z,42.66
2018-09-03T18:15:05.986Z,42.37
2018-09-03T18:17:35.820Z,42.74
2018-09-03T18:20:05.738Z,43.23
2018-09-03T18:22:37.642Z,43.30
2018-09-03T18:25:08.577Z,43.07
2018-09-03T18:27:38.727Z,42.69
2018-09-03T18:30:09.863Z,43.01
2018-09-03T18:32:39.980Z,42.85
2018-09-03T18:35:09.377Z,42.44
2018-09-03T18:37:42.618Z,42.33
2018-09-03T18:40:11.996Z,43.26
2018-09-03T18:42:42.286Z,42.99
2018-09-03T18:45:14.522Z,43.49
2018-09-03T18:47:45.160Z,43.12
2018-09-03T18:50:15.529Z,42.49
2018-09-03T18:52:45.780Z,42.37
2018-09-03T18:55:15.326Z,42.91
2018-09-03T18:57:46.278Z,42.96
2018-09-03T19:00:17.499Z,43.22
2018-09-03T19:02:51.039Z,43.25
2018-09-03T19:05:24.014Z,43.69
2018-09-03T19:07:57.762Z,44.05
2018-09-03T19:10:28.046Z,43.30
2018-09-03T19:12:57.358Z,44.41
2018-09-03T19:15:26.729Z,43.69
2018-09-03T19:17:56.786Z,44.23
2018-09-03T19:20:26.430Z,44.31
2018-09-03T19:23:00.230Z,45.14
2018-09-03T19:25:29.518Z,45.26
2018-09-03T19:28:09.626Z,45.95
2018-09-03T19:30:40.630Z,45.82
2018-09-03T19:33:11.452Z,45.34
2018-09-03T19:35:43.375Z,45.62
2018-09-03T19:38:17.288Z,44.59
2018-09-03T19:40:47.586Z,45.42
2018-09-03T19:43:19.463Z,44.58
2018-09-03T19:45:53.504Z,45.03
2018-09-03T19:48:24.215Z,45.49
2018-09-03T19:50:53.628Z,45.38
2018-09-03T19:53:23.637Z,45.60
2018-09-03T19:55:53.587Z,45.51
2018-09-03T19:58:25.117Z,45.32
2018-09-03T20:00:55.555Z,45.04
2018-09-03T20:03:25.591Z,46.08
2018-09-03T20:05:55.870Z,45.51
2018-09-03T20:08:25.254Z,45.08
2018-09-03T20:10:55.888Z,45.09
2018-09-03T20:13:26.491Z,45.75
2018-09-03T20:15:55.782Z,45.38
2018-09-03T20:18:26.255Z,44.59
2018-09-03T20:20:58.111Z,44.84
2018-09-03T20:23:30.615Z,44.56
2018-09-03T20:26:01.183Z,45.21
2018-09-03T20:28:31.289Z,44.93
2018-09-03T20:31:00.926Z,45.09
2018-09-03T20:33:32.409Z,45.17
2018-09-03T20:36:03.835Z,45.00
2018-09-03T20:38:34.126Z,44.87
2018-09-03T20:41:05.494Z,44.73
2018-09-03T20:43:39.538Z,44.89
2018-09-03T20:46:16.131Z,45.28
2018-09-03T20:48:47.141Z,45.31
2018-09-03T20:51:19.648Z,45.01
2018-09-03T20:53:49.568Z,45.09
2018-09-03T20:56:18.847Z,44.93
2018-09-03T20:58:50.492Z,44.06
2018-09-03T21:01:19.837Z,45.00
2018-09-03T21:03:50.501Z,45.02
2018-09-03T21:06:22.395Z,44.65
2018-09-03T21:08:52.696Z,43.96
2018-09-03T21:11:22.077Z,43.84
2018-09-03T21:13:51.475Z,43.85
2018-09-03T21:16:20.782Z,44.21
2018-09-03T21:18:51.839Z,44.77
2018-09-03T21:21:21.896Z,44.28
2018-09-03T21:23:51.848Z,44.60
2018-09-03T21:26:21.341Z,44.77
2018-09-03T21:28:50.690Z,44.80
2018-09-03T21:31:20.634Z,45.53
2018-09-03T21:33:49.961Z,45.31
2018-09-03T21:36:19.923Z,45.40
2018-09-03T21:38:49.291Z,46.05
2018-09-03T21:41:18.716Z,47.05
2018-09-03T21:43:49.128Z,47.50
2018-09-03T21:46:18.478Z,48.15
2018-09-03T21:48:49.217Z,48.66
2018-09-03T21:51:22.342Z,49.75
2018-09-03T21:53:52.924Z,50.31
2018-09-03T21:56:22.286Z,50.94
2018-09-03T21:58:51.685Z,51.67
2018-09-03T22:01:24.677Z,50.89
2018-09-03T22:03:54.079Z,51.15
2018-09-03T22:06:24.819Z,50.79
2018-09-03T22:08:54.178Z,50.23
2018-09-03T22:11:27.841Z,49.94
2018-09-03T22:13:57.457Z,49.90
2018-09-03T22:16:28.074Z,50.12
2018-09-03T22:18:57.605Z,49.41
2018-09-03T22:21:27.907Z,49.12
2018-09-03T22:23:57.286Z,49.13
2018-09-03T22:26:27.321Z,49.16
2018-09-03T22:28:57.346Z,49.41
2018-09-03T22:31:27.908Z,48.93
2018-09-03T22:33:58.135Z,49.13
2018-09-03T22:36:28.361Z,49.76
2018-09-03T22:38:58.404Z,49.33
2018-09-03T22:41:27.807Z,49.63
2018-09-03T22:43:58.047Z,49.30
2018-09-03T22:46:27.657Z,48.82
2018-09-03T22:48:57.598Z,48.92
2018-09-03T22:51:30.806Z,48.00
2018-09-03T22:54:00.142Z,48.45
2018-09-03T22:56:31.434Z,48.08
2018-09-03T22:59:01.607Z,47.62
2018-09-03T23:01:31.809Z,47.32
2018-09-03T23:04:01.789Z,47.09
2018-09-03T23:06:31.262Z,48.35
2018-09-03T23:09:01.441Z,48.29
2018-09-03T23:11:31.102Z,49.03
2018-09-03T23:14:01.051Z,49.20
2018-09-03T23:16:31.654Z,48.84
2018-09-03T23:19:01.308Z,48.04
2018-09-03T23:21:30.881Z,47.60
2018-09-03T23:24:02.839Z,47.64
2018-09-03T23:26:32.198Z,48.99
2018-09-03T23:29:03.119Z,48.78
2018-09-03T23:31:33.094Z,49.20
2018-09-03T23:34:06.103Z,49.88
2018-09-03T23:36:36.369Z,49.77
2018-09-03T23:39:07.287Z,50.49
2018-09-03T23:44:07.278Z,51.13
2018-09-03T23:46:36.798Z,51.97
2018-09-03T23:49:06.288Z,52.28
2018-09-03T23:51:36.731Z,51.72
2018-09-03T23:54:06.746Z,51.84
2018-09-03T23:56:37.368Z,51.50
2018-09-03T23:59:07.449Z,51.84
